createdAt,value
2022-10-28T00:00:27.290Z,15.60
2022-10-28T00:02:54.464Z,15.60
2022-10-28T00:05:21.852Z,15.60
2022-10-28T00:07:48.752Z,15.60
2022-10-28T00:10:15.707Z,15.50
2022-10-28T00:12:42.577Z,15.50
2022-10-28T00:15:09.639Z,15.50
2022-10-28T00:17:36.573Z,15.60
2022-10-28T00:20:03.889Z,15.50
2022-10-28T00:22:30.841Z,15.50
2022-10-28T00:24:57.899Z,15.40
2022-10-28T00:27:25.117Z,15.40
2022-10-28T00:29:52.052Z,15.30
2022-10-28T00:32:18.958Z,15.30
2022-10-28T00:34:45.954Z,15.30
2022-10-28T00:37:12.849Z,15.20
2022-10-28T00:39:39.772Z,15.20
2022-10-28T00:42:07.341Z,15.10
2022-10-28T00:44:40.836Z,15.10
2022-10-28T00:47:13.229Z,15.00
2022-10-28T00:49:40.102Z,15.00
2022-10-28T00:52:09.630Z,14.90
2022-10-28T00:54:37.910Z,14.90
2022-10-28T00:57:06.306Z,14.80
2022-10-28T00:59:35.514Z,14.80
2022-10-28T01:04:38.019Z,14.70
2022-10-28T01:07:04.926Z,14.80
2022-10-28T01:09:31.819Z,14.70
2022-10-28T01:12:28.934Z,14.70
2022-10-28T01:15:26.255Z,14.70
2022-10-28T01:18:26.456Z,14.60
2022-10-28T01:20:59.260Z,14.60
2022-10-28T01:23:47.601Z,14.60
2022-10-28T01:26:39.228Z,14.60
2022-10-28T01:29:21.339Z,14.60
2022-10-28T01:32:17.674Z,14.50
2022-10-28T01:35:09.763Z,14.50
2022-10-28T01:37:40.905Z,14.50
2022-10-28T01:40:29.815Z,14.60
2022-10-28T01:43:20.272Z,14.60
2022-10-28T01:45:59.827Z,14.50
2022-10-28T01:48:30.896Z,14.50
2022-10-28T01:51:29.574Z,14.50
2022-10-28T01:53:57.337Z,14.50
2022-10-28T01:56:27.806Z,14.50
2022-10-28T01:58:56.499Z,14.50
2022-10-28T02:01:23.823Z,14.40
2022-10-28T02:03:51.105Z,14.40
2022-10-28T02:06:20.711Z,14.40
2022-10-28T02:09:12.400Z,14.50
2022-10-28T02:11:54.485Z,14.40
2022-10-28T02:14:51.792Z,14.40
2022-10-28T02:17:55.831Z,14.40
2022-10-28T02:20:32.138Z,14.40
2022-10-28T02:23:17.419Z,14.40
2022-10-28T02:25:53.205Z,14.30
2022-10-28T02:28:33.408Z,14.30
2022-10-28T02:31:03.057Z,14.30
2022-10-28T02:33:32.493Z,14.30
2022-10-28T02:36:03.762Z,14.30
2022-10-28T02:38:36.324Z,14.30
2022-10-28T02:41:07.291Z,14.20
2022-10-28T02:43:34.800Z,14.20
2022-10-28T02:46:01.849Z,14.20
2022-10-28T02:48:34.082Z,14.20
2022-10-28T02:51:21.916Z,14.20
2022-10-28T02:54:08.926Z,14.20
2022-10-28T02:56:42.852Z,14.10
2022-10-28T02:59:11.697Z,14.10
2022-10-28T03:01:39.293Z,14.00
2022-10-28T03:04:06.852Z,14.00
2022-10-28T03:06:34.460Z,14.00
2022-10-28T03:09:01.335Z,14.00
2022-10-28T03:11:28.385Z,13.90
2022-10-28T03:13:55.727Z,13.90
2022-10-28T03:16:22.657Z,13.90
2022-10-28T03:18:50.079Z,13.90
2022-10-28T03:21:16.964Z,13.90
2022-10-28T03:23:43.844Z,13.80
2022-10-28T03:26:10.992Z,13.80
2022-10-28T03:28:37.867Z,13.80
2022-10-28T03:31:05.206Z,13.80
2022-10-28T03:33:32.660Z,13.80
2022-10-28T03:35:59.642Z,13.80
2022-10-28T03:38:26.543Z,13.80
2022-10-28T03:40:53.618Z,13.90
2022-10-28T03:43:20.564Z,13.80
2022-10-28T03:45:47.853Z,13.80
2022-10-28T03:48:14.881Z,13.80
2022-10-28T03:50:41.915Z,13.80
2022-10-28T03:53:08.965Z,13.80
2022-10-28T03:55:36.402Z,13.80
2022-10-28T03:58:03.532Z,13.80
2022-10-28T04:00:30.919Z,13.70
2022-10-28T04:02:57.973Z,13.70
2022-10-28T04:05:24.878Z,13.70
2022-10-28T04:07:54.220Z,13.80
2022-10-28T04:10:21.312Z,13.70
2022-10-28T04:12:48.185Z,13.70
2022-10-28T04:15:15.478Z,13.80
2022-10-28T04:17:42.532Z,13.80
2022-10-28T04:20:09.632Z,13.80
2022-10-28T04:22:37.235Z,13.80
2022-10-28T04:25:04.455Z,13.80
2022-10-28T04:27:31.452Z,13.80
2022-10-28T04:32:52.459Z,13.70
2022-10-28T04:35:19.372Z,13.70
2022-10-28T04:37:46.357Z,13.60
2022-10-28T04:40:13.419Z,13.60
2022-10-28T04:42:40.285Z,13.60
2022-10-28T04:45:08.016Z,13.50
2022-10-28T04:47:35.069Z,13.60
2022-10-28T04:50:02.288Z,13.60
2022-10-28T04:52:29.335Z,13.60
2022-10-28T04:54:56.345Z,13.60
2022-10-28T04:57:23.550Z,13.60
2022-10-28T04:59:50.442Z,13.60
2022-10-28T05:02:17.584Z,13.60
2022-10-28T05:04:44.831Z,13.70
2022-10-28T05:07:11.762Z,13.80
2022-10-28T05:09:39.056Z,13.80
2022-10-28T05:12:06.854Z,13.70
2022-10-28T05:14:33.824Z,13.80
2022-10-28T05:17:00.865Z,13.90
2022-10-28T05:19:27.818Z,13.80
2022-10-28T05:21:54.766Z,13.80
2022-10-28T05:24:21.957Z,13.80
2022-10-28T05:26:49.009Z,13.90
2022-10-28T05:29:15.970Z,14.00
2022-10-28T05:31:43.247Z,14.00
2022-10-28T05:34:10.223Z,14.00
2022-10-28T05:36:37.210Z,14.10
2022-10-28T05:39:05.185Z,14.10
2022-10-28T05:41:35.177Z,14.10
2022-10-28T05:44:04.695Z,14.00
2022-10-28T05:46:31.769Z,14.10
2022-10-28T05:48:58.653Z,14.10
2022-10-28T05:51:25.525Z,14.00
2022-10-28T05:53:52.606Z,14.00
2022-10-28T05:56:19.533Z,14.00
2022-10-28T05:58:47.632Z,14.10
2022-10-28T06:01:14.805Z,14.10
2022-10-28T06:03:41.817Z,14.10
2022-10-28T06:06:08.855Z,14.20
2022-10-28T06:08:35.883Z,14.20
2022-10-28T06:11:01.678Z,14.20
2022-10-28T06:13:28.597Z,14.20
2022-10-28T06:15:56.787Z,14.20
2022-10-28T06:18:23.865Z,14.20
2022-10-28T06:20:55.432Z,14.20
2022-10-28T06:23:23.452Z,14.20
2022-10-28T06:25:50.499Z,14.30
2022-10-28T06:28:17.445Z,14.30
2022-10-28T06:30:44.384Z,14.20
2022-10-28T06:33:11.473Z,14.30
2022-10-28T06:35:38.532Z,14.30
2022-10-28T06:38:08.492Z,14.20
2022-10-28T06:40:36.511Z,14.20
2022-10-28T06:43:05.470Z,14.20
2022-10-28T06:45:33.036Z,14.20
2022-10-28T06:48:04.032Z,14.20
2022-10-28T06:50:31.050Z,14.20
2022-10-28T06:52:58.052Z,14.20
2022-10-28T06:55:26.206Z,14.20
2022-10-28T06:57:53.370Z,14.20
2022-10-28T07:00:20.522Z,14.20
2022-10-28T07:02:52.741Z,14.30
2022-10-28T07:05:19.976Z,14.30
2022-10-28T07:07:46.962Z,14.30
2022-10-28T07:10:13.997Z,14.30
2022-10-28T07:12:41.008Z,14.40
2022-10-28T07:15:08.649Z,14.40
2022-10-28T07:17:35.936Z,14.40
2022-10-28T07:20:02.864Z,14.30
2022-10-28T07:22:29.751Z,14.30
2022-10-28T07:24:56.820Z,14.40
2022-10-28T07:27:24.163Z,14.40
2022-10-28T07:29:51.064Z,14.40
2022-10-28T07:32:18.049Z,14.50
2022-10-28T07:34:45.154Z,14.50
2022-10-28T07:37:12.915Z,14.50
2022-10-28T07:39:39.976Z,14.50
2022-10-28T07:42:06.965Z,14.50
2022-10-28T07:44:33.849Z,14.50
2022-10-28T07:47:01.058Z,14.50
2022-10-28T07:49:28.100Z,14.50
2022-10-28T07:51:55.063Z,14.50
2022-10-28T07:54:21.971Z,14.60
2022-10-28T07:56:48.908Z,14.60
2022-10-28T07:59:16.145Z,14.70
2022-10-28T08:01:43.251Z,14.80
2022-10-28T08:04:10.289Z,14.80
2022-10-28T08:06:37.160Z,14.90
2022-10-28T08:09:04.076Z,14.90
2022-10-28T08:11:31.050Z,15.00
2022-10-28T08:13:58.008Z,15.10
2022-10-28T08:16:25.139Z,15.20
2022-10-28T08:18:53.274Z,15.40
2022-10-28T08:21:20.191Z,15.40
2022-10-28T08:23:47.232Z,15.40
2022-10-28T08:26:15.355Z,15.50
2022-10-28T08:28:42.924Z,15.60
2022-10-28T08:31:12.699Z,15.60
2022-10-28T08:33:47.127Z,15.70
2022-10-28T08:36:16.152Z,15.70
2022-10-28T08:38:45.669Z,15.80
2022-10-28T08:41:38.139Z,15.90
2022-10-28T08:44:07.849Z,16.00
2022-10-28T08:46:56.814Z,16.00
2022-10-28T08:49:24.057Z,16.00
2022-10-28T08:51:55.532Z,16.00
2022-10-28T08:54:33.045Z,16.00
2022-10-28T08:57:00.628Z,16.10
2022-10-28T08:59:32.871Z,16.10
2022-10-28T09:02:14.581Z,16.10
2022-10-28T09:04:46.166Z,16.20
2022-10-28T09:07:26.264Z,16.10
2022-10-28T09:09:53.158Z,16.20
2022-10-28T09:12:32.859Z,16.30
2022-10-28T09:15:24.498Z,16.30
2022-10-28T09:18:17.527Z,16.40
2022-10-28T09:20:58.056Z,16.50
2022-10-28T09:23:28.363Z,16.60
2022-10-28T09:26:37.219Z,16.70
2022-10-28T09:29:32.351Z,16.70
2022-10-28T09:32:23.982Z,16.80
2022-10-28T09:34:56.909Z,16.90
2022-10-28T09:37:31.027Z,17.00
2022-10-28T09:40:01.861Z,17.10
2022-10-28T09:42:50.814Z,17.20
2022-10-28T09:45:20.345Z,17.20
2022-10-28T09:47:58.413Z,17.20
2022-10-28T09:50:30.116Z,17.10
2022-10-28T09:53:18.744Z,17.10
2022-10-28T09:55:46.125Z,17.10
2022-10-28T09:58:13.250Z,17.20
2022-10-28T10:00:40.196Z,17.30
2022-10-28T10:03:07.317Z,17.30
2022-10-28T10:05:37.402Z,17.40
2022-10-28T10:08:05.080Z,17.40
2022-10-28T10:10:43.927Z,17.40
2022-10-28T10:13:10.815Z,17.40
2022-10-28T10:15:59.068Z,17.40
2022-10-28T10:18:32.197Z,17.40
2022-10-28T10:20:59.343Z,17.50
2022-10-28T10:23:30.391Z,17.60
2022-10-28T10:26:12.655Z,17.80
2022-10-28T10:28:48.003Z,17.90
2022-10-28T10:31:25.889Z,18.00
2022-10-28T10:33:56.951Z,18.20
2022-10-28T10:36:28.495Z,18.30
2022-10-28T10:38:59.769Z,18.50
2022-10-28T10:41:44.714Z,18.50
2022-10-28T10:44:20.544Z,18.50
2022-10-28T10:47:07.435Z,18.60
2022-10-28T10:49:35.514Z,18.60
2022-10-28T10:52:05.106Z,18.50
2022-10-28T10:54:32.450Z,18.60
2022-10-28T10:57:19.930Z,18.60
2022-10-28T10:59:47.680Z,18.60
2022-10-28T11:02:26.977Z,18.70
2022-10-28T11:04:57.215Z,18.80
2022-10-28T11:07:24.288Z,18.80
2022-10-28T11:09:51.490Z,18.80
2022-10-28T11:12:30.550Z,18.90
2022-10-28T11:15:21.455Z,18.90
2022-10-28T11:18:05.217Z,19.00
2022-10-28T11:20:55.462Z,19.00
2022-10-28T11:23:34.630Z,19.10
2022-10-28T11:26:03.727Z,19.00
2022-10-28T11:29:00.733Z,19.00
2022-10-28T11:31:47.750Z,19.00
2022-10-28T11:34:39.418Z,19.00
2022-10-28T11:37:24.820Z,19.10
2022-10-28T11:40:27.829Z,19.10
2022-10-28T11:43:36.401Z,19.10
2022-10-28T11:46:11.432Z,19.20
2022-10-28T11:48:54.581Z,19.30
2022-10-28T11:51:49.964Z,19.40
2022-10-28T11:54:45.087Z,19.40
2022-10-28T11:57:22.759Z,19.50
2022-10-28T12:00:17.550Z,19.40
2022-10-28T12:03:18.536Z,19.40
2022-10-28T12:05:56.179Z,19.50
2022-10-28T12:08:35.095Z,19.40
2022-10-28T12:11:22.854Z,19.30
2022-10-28T12:14:27.336Z,19.40
2022-10-28T12:17:03.894Z,19.40
2022-10-28T12:19:37.623Z,19.40
2022-10-28T12:22:13.009Z,19.40
2022-10-28T12:24:41.065Z,19.50
2022-10-28T12:27:25.989Z,19.40
2022-10-28T12:29:56.241Z,19.40
2022-10-28T12:32:27.404Z,19.50
2022-10-28T12:35:01.865Z,19.50
2022-10-28T12:37:37.444Z,19.50
2022-10-28T12:40:07.663Z,19.40
2022-10-28T12:42:37.925Z,19.50
2022-10-28T12:45:07.382Z,19.40
2022-10-28T12:47:43.011Z,19.40
2022-10-28T12:50:32.495Z,19.40
2022-10-28T12:53:16.061Z,19.50
2022-10-28T12:55:47.376Z,19.50
2022-10-28T12:58:57.697Z,19.50
2022-10-28T13:01:24.809Z,19.50
2022-10-28T13:03:52.742Z,19.50
2022-10-28T13:06:25.670Z,19.50
2022-10-28T13:09:20.653Z,19.40
2022-10-28T13:12:03.913Z,19.40
2022-10-28T13:17:38.422Z,19.20
2022-10-28T13:20:20.475Z,19.20
2022-10-28T13:22:53.753Z,19.20
2022-10-28T13:25:48.912Z,19.20
2022-10-28T13:28:17.317Z,19.20
2022-10-28T13:31:01.067Z,19.20
2022-10-28T13:33:29.339Z,19.20
2022-10-28T13:36:20.077Z,19.20
2022-10-28T13:38:52.056Z,19.20
2022-10-28T13:41:35.712Z,19.20
2022-10-28T13:44:09.091Z,19.10
2022-10-28T13:46:57.797Z,19.20
2022-10-28T13:49:31.707Z,19.20
2022-10-28T13:52:07.491Z,19.10
2022-10-28T13:54:43.306Z,19.00
2022-10-28T13:57:23.885Z,19.00
2022-10-28T13:59:53.837Z,19.00
2022-10-28T14:02:39.613Z,19.00
2022-10-28T14:05:11.492Z,19.10
2022-10-28T14:07:52.192Z,19.00
2022-10-28T14:10:26.679Z,19.00
2022-10-28T14:13:01.797Z,19.00
2022-10-28T14:15:36.056Z,18.90
2022-10-28T14:18:22.459Z,18.90
2022-10-28T14:20:58.992Z,18.90
2022-10-28T14:23:29.003Z,18.90
2022-10-28T14:25:56.356Z,18.90
2022-10-28T14:28:32.398Z,18.90
2022-10-28T14:31:08.303Z,18.80
2022-10-28T14:33:35.226Z,18.80
2022-10-28T14:36:17.468Z,18.80
2022-10-28T14:38:54.018Z,18.70
2022-10-28T14:41:34.914Z,18.70
2022-10-28T14:44:07.646Z,18.70
2022-10-28T14:47:03.470Z,18.70
2022-10-28T14:49:31.408Z,18.70
2022-10-28T14:52:03.506Z,18.70
2022-10-28T14:54:40.608Z,18.70
2022-10-28T14:57:07.996Z,18.60
2022-10-28T14:59:43.141Z,18.60
2022-10-28T15:02:11.536Z,18.60
2022-10-28T15:04:42.657Z,18.60
2022-10-28T15:07:14.720Z,18.60
2022-10-28T15:09:43.555Z,18.50
2022-10-28T15:12:16.939Z,18.50
2022-10-28T15:14:53.129Z,18.50
2022-10-28T15:17:28.207Z,18.40
2022-10-28T15:19:56.823Z,18.30
2022-10-28T15:22:30.682Z,18.30
2022-10-28T15:24:59.631Z,18.40
2022-10-28T15:27:29.342Z,18.30
2022-10-28T15:29:56.347Z,18.30
2022-10-28T15:32:23.174Z,18.30
2022-10-28T15:34:50.095Z,18.30
2022-10-28T15:37:21.847Z,18.30
2022-10-28T15:39:51.005Z,18.20
2022-10-28T15:42:41.085Z,18.20
2022-10-28T15:45:20.033Z,18.20
2022-10-28T15:47:47.244Z,18.20
2022-10-28T15:50:16.941Z,18.10
2022-10-28T15:52:53.060Z,18.10
2022-10-28T15:55:23.727Z,18.10
2022-10-28T15:57:59.822Z,18.10
2022-10-28T16:00:31.032Z,18.10
2022-10-28T16:03:02.315Z,18.10
2022-10-28T16:05:32.434Z,18.10
2022-10-28T16:08:03.212Z,18.00
2022-10-28T16:10:33.670Z,18.00
2022-10-28T16:13:01.337Z,18.00
2022-10-28T16:15:28.342Z,18.00
2022-10-28T16:17:55.659Z,18.00
2022-10-28T16:20:26.577Z,17.90
2022-10-28T16:22:53.860Z,17.90
2022-10-28T16:25:21.873Z,17.90
2022-10-28T16:27:49.804Z,17.90
2022-10-28T16:30:17.028Z,17.90
2022-10-28T16:32:45.979Z,17.80
2022-10-28T16:35:17.482Z,17.80
2022-10-28T16:37:45.356Z,17.80
2022-10-28T16:40:37.820Z,17.80
2022-10-28T16:43:01.743Z,17.70
2022-10-28T16:45:28.680Z,17.70
2022-10-28T16:47:55.971Z,17.70
2022-10-28T16:50:23.940Z,17.60
2022-10-28T16:52:50.833Z,17.60
2022-10-28T16:55:19.458Z,17.60
2022-10-28T16:57:46.505Z,17.60
2022-10-28T17:00:13.884Z,17.60
2022-10-28T17:02:40.938Z,17.50
2022-10-28T17:05:16.941Z,17.50
2022-10-28T17:07:43.835Z,17.50
2022-10-28T17:10:12.022Z,17.60
2022-10-28T17:12:39.024Z,17.50
2022-10-28T17:15:06.307Z,17.50
2022-10-28T17:17:33.239Z,17.50
2022-10-28T17:20:00.193Z,17.50
2022-10-28T17:22:27.400Z,17.50
2022-10-28T17:24:54.667Z,17.50
2022-10-28T17:27:21.630Z,17.40
2022-10-28T17:29:48.589Z,17.40
2022-10-28T17:32:15.977Z,17.40
2022-10-28T17:34:43.141Z,17.40
2022-10-28T17:37:10.522Z,17.40
2022-10-28T17:39:38.005Z,17.40
2022-10-28T17:42:04.975Z,17.40
2022-10-28T17:44:31.946Z,17.40
2022-10-28T17:46:58.831Z,17.30
2022-10-28T17:49:25.802Z,17.30
2022-10-28T17:51:53.075Z,17.30
2022-10-28T17:54:20.233Z,17.20
2022-10-28T17:56:47.958Z,17.20
2022-10-28T17:59:15.095Z,17.10
2022-10-28T18:01:42.276Z,17.10
2022-10-28T18:04:12.031Z,17.10
2022-10-28T18:06:38.994Z,17.00
2022-10-28T18:09:09.505Z,17.00
2022-10-28T18:11:37.512Z,17.00
2022-10-28T18:14:04.492Z,17.00
2022-10-28T18:16:31.422Z,16.90
2022-10-28T18:19:03.344Z,16.90
2022-10-28T18:21:30.235Z,16.80
2022-10-28T18:24:04.047Z,16.80
2022-10-28T18:26:35.735Z,16.80
2022-10-28T18:29:04.188Z,16.80
2022-10-28T18:31:33.013Z,16.80
2022-10-28T18:34:01.167Z,16.80
2022-10-28T18:36:30.777Z,16.90
2022-10-28T18:38:58.309Z,16.80
2022-10-28T18:41:27.151Z,16.80
2022-10-28T18:43:55.339Z,16.80
2022-10-28T18:46:22.669Z,16.70
2022-10-28T18:48:50.261Z,16.80
2022-10-28T18:51:17.496Z,16.70
2022-10-28T18:53:46.603Z,16.60
2022-10-28T18:56:15.476Z,16.60
2022-10-28T18:58:43.017Z,16.60
2022-10-28T19:01:12.660Z,16.50
2022-10-28T19:03:39.809Z,16.50
2022-10-28T19:06:15.274Z,16.50
2022-10-28T19:08:43.045Z,16.40
2022-10-28T19:11:11.469Z,16.40
2022-10-28T19:13:40.925Z,16.40
2022-10-28T19:16:08.482Z,16.30
2022-10-28T19:18:36.743Z,16.30
2022-10-28T19:21:08.443Z,16.30
2022-10-28T19:23:35.496Z,16.20
2022-10-28T19:26:03.946Z,16.20
2022-10-28T19:28:31.588Z,16.20
2022-10-28T19:31:03.305Z,16.10
2022-10-28T19:33:30.565Z,16.20
2022-10-28T19:36:02.100Z,16.20
2022-10-28T19:38:33.465Z,16.10
2022-10-28T19:41:07.660Z,16.10
2022-10-28T19:43:35.186Z,16.10
2022-10-28T19:46:03.588Z,16.10
2022-10-28T19:48:30.666Z,16.10
2022-10-28T19:50:57.540Z,16.00
2022-10-28T19:53:24.491Z,15.90
2022-10-28T19:55:56.063Z,15.90
2022-10-28T19:58:23.168Z,15.80
2022-10-28T20:00:50.103Z,15.90
2022-10-28T20:03:17.266Z,15.80
2022-10-28T20:05:44.547Z,15.80
2022-10-28T20:08:11.776Z,15.80
2022-10-28T20:10:40.263Z,15.80
2022-10-28T20:13:07.719Z,15.60
2022-10-28T20:15:34.589Z,15.60
2022-10-28T20:18:01.545Z,15.60
2022-10-28T20:20:28.441Z,15.60
2022-10-28T20:22:55.708Z,15.60
2022-10-28T20:25:22.895Z,15.60
2022-10-28T20:27:50.236Z,15.40
2022-10-28T20:30:17.276Z,15.40
2022-10-28T20:32:44.682Z,15.30
2022-10-28T20:35:11.824Z,15.30
2022-10-28T20:37:38.774Z,15.40
2022-10-28T20:40:07.673Z,15.40
2022-10-28T20:42:34.870Z,15.40
2022-10-28T20:45:01.825Z,15.30
2022-10-28T20:47:28.992Z,15.30
2022-10-28T20:49:59.276Z,15.30
2022-10-28T20:52:26.157Z,15.20
2022-10-28T20:54:53.625Z,15.10
2022-10-28T20:57:20.511Z,15.20
2022-10-28T20:59:49.345Z,15.20
2022-10-28T21:02:16.459Z,15.20
2022-10-28T21:04:43.436Z,15.10
2022-10-28T21:07:10.364Z,15.10
2022-10-28T21:09:37.243Z,15.00
2022-10-28T21:12:04.431Z,15.00
2022-10-28T21:14:31.368Z,15.00
2022-10-28T21:16:58.484Z,15.00
2022-10-28T21:19:25.475Z,15.00
2022-10-28T21:21:52.895Z,15.10
2022-10-28T21:24:19.868Z,15.00
2022-10-28T21:26:48.412Z,15.00
2022-10-28T21:29:18.047Z,14.90
2022-10-28T21:31:45.087Z,14.80
2022-10-28T21:34:11.994Z,14.70
2022-10-28T21:36:38.867Z,14.70
2022-10-28T21:39:05.783Z,14.80
2022-10-28T21:41:32.671Z,14.80
2022-10-28T21:43:59.632Z,14.70
2022-10-28T21:46:26.568Z,14.50
2022-10-28T21:48:56.307Z,14.50
2022-10-28T21:51:23.706Z,14.50
2022-10-28T21:53:50.711Z,14.50
2022-10-28T21:56:19.566Z,14.50
2022-10-28T21:58:48.414Z,14.50
2022-10-28T22:01:20.851Z,14.60
2022-10-28T22:03:48.000Z,14.60
2022-10-28T22:06:14.963Z,14.60
2022-10-28T22:08:42.088Z,14.70
2022-10-28T22:11:14.122Z,14.70
2022-10-28T22:13:44.612Z,14.70
2022-10-28T22:16:13.530Z,14.70
2022-10-28T22:18:40.588Z,14.50
2022-10-28T22:21:15.429Z,14.40
2022-10-28T22:23:42.871Z,14.50
2022-10-28T22:26:12.927Z,14.60
2022-10-28T22:28:39.984Z,14.50
2022-10-28T22:31:15.161Z,14.50
2022-10-28T22:33:42.541Z,14.40
2022-10-28T22:36:14.548Z,14.40
2022-10-28T22:38:42.871Z,14.40
2022-10-28T22:41:16.069Z,14.30
2022-10-28T22:43:44.075Z,14.30
2022-10-28T22:46:13.355Z,14.30
2022-10-28T22:48:40.256Z,14.30
2022-10-28T22:51:07.372Z,14.20
2022-10-28T22:53:34.336Z,14.10
2022-10-28T22:56:01.301Z,14.00
2022-10-28T22:58:28.350Z,14.00
2022-10-28T23:01:05.035Z,14.10
2022-10-28T23:03:40.968Z,14.10
2022-10-28T23:06:10.036Z,14.20
2022-10-28T23:08:38.136Z,14.20
2022-10-28T23:11:05.594Z,14.20
2022-10-28T23:13:32.806Z,14.20
2022-10-28T23:16:07.215Z,14.10
2022-10-28T23:18:34.335Z,13.90
2022-10-28T23:21:05.403Z,13.90
2022-10-28T23:23:32.369Z,13.90
2022-10-28T23:25:59.366Z,14.00
2022-10-28T23:28:26.259Z,14.00
2022-10-28T23:30:53.594Z,14.10
2022-10-28T23:33:20.523Z,14.10
2022-10-28T23:35:56.534Z,14.10
2022-10-28T23:38:24.340Z,14.10
2022-10-28T23:41:02.284Z,14.10
2022-10-28T23:43:29.706Z,14.10
2022-10-28T23:45:56.728Z,14.10
2022-10-28T23:48:24.813Z,14.00
2022-10-28T23:50:51.880Z,14.00
2022-10-28T23:53:19.393Z,14.00
2022-10-28T23:55:47.246Z,14.00
2022-10-28T23:58:15.018Z,14.00
